createdAt,value
2022-09-28T00:00:09.565Z,7.65
2022-09-28T00:05:07.774Z,4.65
2022-09-28T00:10:00.977Z,4.85
2022-09-28T00:14:54.145Z,6.68
2022-09-28T00:19:47.315Z,6.00
2022-09-28T00:24:41.906Z,4.30
2022-09-28T00:29:37.007Z,5.05
2022-09-28T00:34:32.387Z,7.03
2022-09-28T00:39:27.121Z,5.00
2022-09-28T00:44:39.337Z,5.13
2022-09-28T00:49:37.141Z,5.00
2022-09-28T00:54:31.335Z,4.88
2022-09-28T00:59:25.159Z,5.45
2022-09-28T01:04:20.134Z,4.85
2022-09-28T01:09:15.567Z,5.60
2022-09-28T01:14:16.821Z,4.28
2022-09-28T01:19:32.837Z,4.85
2022-09-28T01:24:41.153Z,4.25
2022-09-28T01:29:49.382Z,5.10
2022-09-28T01:34:49.469Z,4.80
2022-09-28T01:44:44.171Z,4.28
2022-09-28T01:49:41.230Z,4.97
2022-09-28T01:54:40.065Z,4.45
2022-09-28T01:59:35.954Z,5.22
2022-09-28T02:04:37.146Z,3.65
2022-09-28T02:09:36.371Z,3.95
2022-09-28T02:14:31.116Z,4.07
2022-09-28T02:19:29.430Z,6.78
2022-09-28T02:24:34.271Z,4.68
2022-09-28T02:29:27.750Z,6.35
2022-09-28T02:34:21.098Z,6.03
2022-09-28T02:39:16.991Z,5.60
2022-09-28T02:44:25.601Z,6.93
2022-09-28T02:49:26.872Z,6.68
2022-09-28T02:54:39.372Z,6.97
2022-09-28T02:59:46.007Z,8.27
2022-09-28T03:04:47.322Z,7.22
2022-09-28T03:09:56.194Z,6.93
2022-09-28T03:15:07.266Z,6.78
2022-09-28T03:20:00.835Z,8.82
2022-09-28T03:24:54.166Z,8.15
2022-09-28T03:29:47.414Z,9.40
2022-09-28T03:34:42.425Z,7.70
2022-09-28T03:39:36.461Z,9.05
2022-09-28T03:44:33.100Z,8.73
2022-09-28T03:49:27.106Z,8.40
2022-09-28T03:54:21.795Z,8.52
2022-09-28T03:59:15.263Z,6.70
2022-09-28T04:04:08.464Z,7.63
2022-09-28T04:09:01.725Z,6.75
2022-09-28T04:13:57.128Z,6.30
2022-09-28T04:18:51.270Z,6.85
2022-09-28T04:29:19.693Z,6.95
2022-09-28T04:34:18.450Z,11.00
2022-09-28T04:39:12.234Z,7.85
2022-09-28T04:44:09.068Z,7.97
2022-09-28T04:49:03.565Z,8.63
2022-09-28T04:54:19.138Z,15.27
2022-09-28T04:59:14.125Z,11.32
2022-09-28T05:04:08.996Z,9.65
2022-09-28T05:09:14.225Z,8.90
2022-09-28T05:14:07.590Z,10.07
2022-09-28T05:19:02.204Z,10.27
2022-09-28T05:23:56.223Z,8.65
2022-09-28T05:28:49.908Z,8.82
2022-09-28T05:39:15.566Z,5.32
2022-09-28T05:44:11.676Z,7.65
2022-09-28T05:49:05.026Z,6.93
2022-09-28T05:54:05.424Z,6.05
2022-09-28T05:58:59.831Z,5.95
2022-09-28T06:03:55.884Z,5.00
2022-09-28T06:08:50.155Z,4.05
2022-09-28T06:14:13.851Z,4.93
2022-09-28T06:19:08.811Z,6.60
2022-09-28T06:24:27.715Z,4.70
2022-09-28T06:29:22.282Z,4.40
2022-09-28T06:34:15.847Z,4.22
2022-09-28T06:39:10.853Z,3.78
2022-09-28T06:44:04.504Z,6.20
2022-09-28T06:49:31.412Z,3.67
2022-09-28T06:54:56.386Z,5.22
2022-09-28T07:04:50.661Z,5.07
2022-09-28T07:10:02.956Z,6.90
2022-09-28T07:15:22.945Z,3.25
2022-09-28T07:20:19.587Z,6.57
2022-09-28T07:25:15.123Z,6.00
2022-09-28T07:30:28.633Z,4.78
2022-09-28T07:35:52.919Z,4.32
2022-09-28T07:41:05.486Z,3.90
2022-09-28T07:45:59.166Z,5.30
2022-09-28T07:50:56.902Z,6.75
2022-09-28T07:56:02.330Z,4.90
2022-09-28T08:01:15.398Z,5.93
2022-09-28T08:06:12.734Z,3.63
2022-09-28T08:11:08.598Z,3.35
2022-09-28T08:16:25.290Z,3.92
2022-09-28T08:21:46.327Z,5.72
2022-09-28T08:26:40.263Z,5.38
2022-09-28T08:31:34.927Z,4.68
2022-09-28T08:36:46.201Z,4.35
2022-09-28T08:42:30.396Z,3.90
2022-09-28T08:48:14.495Z,3.35
2022-09-28T08:53:35.252Z,4.18
2022-09-28T08:58:40.981Z,5.70
2022-09-28T09:03:37.781Z,6.15
2022-09-28T09:09:03.993Z,3.67
2022-09-28T09:14:17.951Z,1.85
2022-09-28T09:19:17.739Z,3.92
2022-09-28T09:24:34.406Z,4.03
2022-09-28T09:29:36.533Z,3.58
2022-09-28T09:34:52.849Z,3.53
2022-09-28T09:40:25.069Z,3.97
2022-09-28T09:45:51.373Z,4.05
2022-09-28T09:51:06.955Z,3.85
2022-09-28T09:56:06.988Z,2.42
2022-09-28T10:01:13.733Z,3.50
2022-09-28T10:06:36.054Z,3.17
2022-09-28T10:11:36.644Z,3.40
2022-09-28T10:16:34.639Z,2.67
2022-09-28T10:21:37.628Z,3.50
2022-09-28T10:26:54.003Z,2.22
2022-09-28T10:37:05.572Z,4.68
2022-09-28T10:42:24.366Z,5.32
2022-09-28T10:47:22.402Z,4.38
2022-09-28T10:52:34.422Z,3.25
2022-09-28T10:57:33.876Z,3.03
2022-09-28T11:02:36.706Z,5.07
2022-09-28T11:07:45.329Z,4.22
2022-09-28T11:12:45.800Z,3.53
2022-09-28T11:17:44.062Z,3.47
2022-09-28T11:22:42.491Z,2.75
2022-09-28T11:27:37.334Z,4.30
2022-09-28T11:32:41.170Z,3.45
2022-09-28T11:38:02.123Z,6.00
2022-09-28T11:43:31.941Z,4.53
2022-09-28T11:48:35.344Z,3.50
2022-09-28T11:53:34.748Z,2.17
2022-09-28T11:58:35.966Z,4.70
2022-09-28T12:03:38.962Z,2.47
2022-09-28T12:08:37.505Z,2.25
2022-09-28T12:13:36.431Z,4.80
2022-09-28T12:23:33.354Z,2.88
2022-09-28T12:28:34.742Z,5.90
2022-09-28T12:33:27.883Z,5.85
2022-09-28T12:38:39.747Z,3.70
2022-09-28T12:43:57.522Z,1.55
2022-09-28T12:49:47.586Z,3.35
2022-09-28T12:54:42.158Z,5.80
2022-09-28T12:59:40.394Z,7.78
2022-09-28T13:04:51.565Z,5.20
2022-09-28T13:09:57.928Z,2.45
2022-09-28T13:15:10.438Z,6.13
2022-09-28T13:20:20.729Z,4.90
2022-09-28T13:25:19.073Z,3.55
2022-09-28T13:30:17.319Z,3.40
2022-09-28T13:35:15.103Z,6.03
2022-09-28T13:40:09.226Z,3.63
2022-09-28T13:45:18.889Z,2.03
2022-09-28T13:50:22.470Z,6.28
2022-09-28T13:55:25.032Z,3.38
2022-09-28T14:00:27.421Z,2.35
2022-09-28T14:05:47.661Z,2.58
2022-09-28T14:10:49.901Z,3.90
2022-09-28T14:15:47.455Z,3.58
2022-09-28T14:20:51.938Z,4.93
2022-09-28T14:25:46.641Z,6.72
2022-09-28T14:30:54.237Z,6.30
2022-09-28T14:35:51.956Z,3.80
2022-09-28T14:41:14.095Z,2.85
2022-09-28T14:46:47.009Z,3.60
2022-09-28T14:52:05.925Z,4.00
2022-09-28T14:57:09.452Z,3.45
2022-09-28T15:02:15.536Z,4.00
2022-09-28T15:07:21.563Z,6.55
2022-09-28T15:12:22.643Z,4.43
2022-09-28T15:17:22.096Z,2.67
2022-09-28T15:27:19.191Z,4.03
2022-09-28T15:32:25.391Z,6.03
2022-09-28T15:37:23.829Z,5.72
2022-09-28T15:42:18.911Z,7.30
2022-09-28T15:47:15.682Z,7.55
2022-09-28T15:52:22.194Z,8.13
2022-09-28T15:57:34.480Z,11.55
2022-09-28T16:02:28.205Z,7.45
2022-09-28T16:07:28.866Z,11.88
2022-09-28T16:12:22.257Z,10.73
2022-09-28T16:17:22.703Z,12.40
2022-09-28T16:22:28.000Z,12.05
2022-09-28T16:27:27.799Z,15.65
2022-09-28T16:32:41.834Z,16.27
2022-09-28T16:37:35.365Z,14.95
2022-09-28T16:42:29.436Z,13.20
2022-09-28T16:47:22.631Z,11.68
2022-09-28T16:52:37.516Z,15.43
2022-09-28T16:57:30.736Z,12.60
2022-09-28T17:02:45.683Z,10.43
2022-09-28T17:07:41.894Z,12.00
2022-09-28T17:12:36.108Z,8.60
2022-09-28T17:17:31.587Z,11.75
2022-09-28T17:22:25.358Z,6.18
2022-09-28T17:27:21.758Z,7.32
2022-09-28T17:32:19.717Z,7.15
2022-09-28T17:37:14.814Z,10.10
2022-09-28T17:42:14.202Z,7.28
2022-09-28T17:47:10.555Z,9.63
2022-09-28T17:52:05.232Z,9.10
2022-09-28T17:56:58.404Z,6.97
2022-09-28T18:01:51.733Z,6.63
2022-09-28T18:06:46.597Z,7.38
2022-09-28T18:11:42.410Z,11.02
2022-09-28T18:16:36.170Z,7.95
2022-09-28T18:21:32.351Z,14.85
2022-09-28T18:26:28.452Z,12.90
2022-09-28T18:31:22.351Z,12.70
2022-09-28T18:36:15.630Z,10.02
2022-09-28T18:41:10.247Z,11.23
2022-09-28T18:46:09.396Z,10.15
2022-09-28T18:51:02.897Z,9.52
2022-09-28T18:55:57.066Z,7.07
2022-09-28T19:00:50.563Z,5.82
2022-09-28T19:05:46.364Z,8.73
2022-09-28T19:10:39.926Z,10.23
2022-09-28T19:15:34.749Z,6.15
2022-09-28T19:20:28.742Z,9.05
2022-09-28T19:25:24.056Z,10.35
2022-09-28T19:30:17.484Z,8.55
2022-09-28T19:35:11.081Z,6.60
2022-09-28T19:40:05.947Z,6.07
2022-09-28T19:45:00.751Z,9.52
2022-09-28T19:49:54.130Z,7.28
2022-09-28T19:54:54.553Z,9.45
2022-09-28T19:59:52.359Z,8.60
2022-09-28T20:04:47.528Z,8.55
2022-09-28T20:09:41.091Z,10.43
2022-09-28T20:14:38.272Z,6.78
2022-09-28T20:19:33.771Z,7.10
2022-09-28T20:24:29.364Z,8.90
2022-09-28T20:29:31.629Z,8.00
2022-09-28T20:34:25.148Z,8.10
2022-09-28T20:39:18.718Z,8.32
2022-09-28T20:44:13.408Z,11.23
2022-09-28T20:49:07.808Z,6.95
2022-09-28T20:54:01.046Z,6.70
2022-09-28T20:58:55.390Z,7.85
2022-09-28T21:03:51.686Z,8.13
2022-09-28T21:08:45.961Z,6.60
2022-09-28T21:13:42.006Z,4.95
2022-09-28T21:18:35.146Z,5.55
2022-09-28T21:23:29.748Z,5.32
2022-09-28T21:28:22.901Z,3.58
2022-09-28T21:33:16.064Z,2.33
2022-09-28T21:38:09.266Z,2.70
2022-09-28T21:43:03.885Z,3.97
2022-09-28T21:47:57.075Z,4.63
2022-09-28T21:52:51.670Z,3.42
2022-09-28T21:57:47.167Z,3.25
2022-09-28T22:02:42.533Z,2.45
2022-09-28T22:07:35.695Z,5.43
2022-09-28T22:12:30.141Z,3.72
2022-09-28T22:17:23.552Z,2.50
2022-09-28T22:22:18.074Z,6.53
2022-09-28T22:27:11.273Z,5.10
2022-09-28T22:32:04.457Z,3.42
2022-09-28T22:36:57.701Z,3.38
2022-09-28T22:41:52.647Z,7.45
2022-09-28T22:46:45.927Z,6.35
2022-09-28T22:51:39.682Z,4.68
2022-09-28T22:56:33.000Z,4.55
2022-09-28T23:01:29.464Z,3.97
2022-09-28T23:06:26.047Z,5.47
2022-09-28T23:11:20.152Z,4.38
2022-09-28T23:16:15.088Z,4.22
2022-09-28T23:21:12.785Z,4.35
2022-09-28T23:26:13.767Z,4.00
2022-09-28T23:31:11.426Z,2.70
2022-09-28T23:36:05.007Z,6.05
2022-09-28T23:40:59.664Z,6.35
2022-09-28T23:45:53.087Z,6.05
2022-09-28T23:50:46.901Z,4.45
2022-09-28T23:55:40.047Z,3.58
